sensor_id;sensor_type;location;lat;lon;timestamp;P1;durP1;ratioP1;P2;durP2;ratioP2
19446;SDS011;9862;49.462;11.054;2023-11-21T00:00:12;3.70;;;1.08;;
19446;SDS011;9862;49.462;11.054;2023-11-21T00:02:41;1.55;;;1.13;;
19446;SDS011;9862;49.462;11.054;2023-11-21T00:05:07;1.50;;;1.05;;
19446;SDS011;9862;49.462;11.054;2023-11-21T00:07:35;3.40;;;1.23;;
19446;SDS011;9862;49.462;11.054;2023-11-21T00:10:04;1.85;;;1.23;;
19446;SDS011;9862;49.462;11.054;2023-11-21T00:12:31;4.28;;;1.10;;
19446;SDS011;9862;49.462;11.054;2023-11-21T00:14:58;4.75;;;2.10;;
19446;SDS011;9862;49.462;11.054;2023-11-21T00:17:25;6.30;;;2.95;;
19446;SDS011;9862;49.462;11.054;2023-11-21T00:19:52;4.50;;;2.25;;
19446;SDS011;9862;49.462;11.054;2023-11-21T00:22:20;2.67;;;1.08;;
19446;SDS011;9862;49.462;11.054;2023-11-21T00:24:47;2.00;;;1.20;;
19446;SDS011;9862;49.462;11.054;2023-11-21T00:27:16;1.33;;;0.95;;
19446;SDS011;9862;49.462;11.054;2023-11-21T00:29:43;2.33;;;1.05;;
19446;SDS011;9862;49.462;11.054;2023-11-21T00:32:10;2.42;;;1.10;;
19446;SDS011;9862;49.462;11.054;2023-11-21T00:34:36;3.95;;;1.30;;
19446;SDS011;9862;49.462;11.054;2023-11-21T00:37:03;1.27;;;0.88;;
19446;SDS011;9862;49.462;11.054;2023-11-21T00:39:30;3.92;;;1.60;;
19446;SDS011;9862;49.462;11.054;2023-11-21T00:41:58;2.15;;;1.13;;
19446;SDS011;9862;49.462;11.054;2023-11-21T00:44:26;2.83;;;1.10;;
19446;SDS011;9862;49.462;11.054;2023-11-21T00:46:53;1.67;;;1.05;;
19446;SDS011;9862;49.462;11.054;2023-11-21T00:49:21;4.25;;;1.20;;
19446;SDS011;9862;49.462;11.054;2023-11-21T00:51:48;1.75;;;0.90;;
19446;SDS011;9862;49.462;11.054;2023-11-21T00:54:14;2.80;;;1.10;;
19446;SDS011;9862;49.462;11.054;2023-11-21T00:56:42;5.43;;;1.58;;
19446;SDS011;9862;49.462;11.054;2023-11-21T00:59:09;2.22;;;1.25;;
19446;SDS011;9862;49.462;11.054;2023-11-21T01:01:39;3.85;;;1.30;;
19446;SDS011;9862;49.462;11.054;2023-11-21T01:04:06;4.05;;;1.58;;
19446;SDS011;9862;49.462;11.054;2023-11-21T01:06:33;2.22;;;1.23;;
19446;SDS011;9862;49.462;11.054;2023-11-21T01:08:59;3.97;;;1.67;;
19446;SDS011;9862;49.462;11.054;2023-11-21T01:11:26;3.15;;;1.63;;
19446;SDS011;9862;49.462;11.054;2023-11-21T01:13:53;4.32;;;2.10;;
19446;SDS011;9862;49.462;11.054;2023-11-21T01:16:20;5.05;;;2.00;;
19446;SDS011;9862;49.462;11.054;2023-11-21T01:18:48;2.88;;;1.60;;
19446;SDS011;9862;49.462;11.054;2023-11-21T01:21:15;5.25;;;1.80;;
19446;SDS011;9862;49.462;11.054;2023-11-21T01:23:42;1.92;;;1.30;;
19446;SDS011;9862;49.462;11.054;2023-11-21T01:26:09;3.80;;;1.33;;
19446;SDS011;9862;49.462;11.054;2023-11-21T01:28:36;3.00;;;1.52;;
19446;SDS011;9862;49.462;11.054;2023-11-21T01:31:02;3.45;;;1.63;;
19446;SDS011;9862;49.462;11.054;2023-11-21T01:33:29;3.67;;;1.50;;
19446;SDS011;9862;49.462;11.054;2023-11-21T01:35:58;3.13;;;1.58;;
19446;SDS011;9862;49.462;11.054;2023-11-21T01:38:25;4.05;;;1.63;;
19446;SDS011;9862;49.462;11.054;2023-11-21T01:40:52;2.75;;;1.50;;
19446;SDS011;9862;49.462;11.054;2023-11-21T01:43:19;2.75;;;1.20;;
19446;SDS011;9862;49.462;11.054;2023-11-21T01:45:45;6.78;;;1.92;;
19446;SDS011;9862;49.462;11.054;2023-11-21T01:48:12;1.45;;;0.93;;
19446;SDS011;9862;49.462;11.054;2023-11-21T01:50:41;2.15;;;1.08;;
19446;SDS011;9862;49.462;11.054;2023-11-21T01:53:12;3.63;;;1.30;;
19446;SDS011;9862;49.462;11.054;2023-11-21T01:55:40;2.72;;;1.60;;
19446;SDS011;9862;49.462;11.054;2023-11-21T01:58:09;1.83;;;0.98;;
19446;SDS011;9862;49.462;11.054;2023-11-21T02:00:38;2.20;;;1.30;;
19446;SDS011;9862;49.462;11.054;2023-11-21T02:03:05;2.33;;;1.00;;
19446;SDS011;9862;49.462;11.054;2023-11-21T02:05:33;2.63;;;1.30;;
19446;SDS011;9862;49.462;11.054;2023-11-21T02:08:01;3.45;;;1.30;;
19446;SDS011;9862;49.462;11.054;2023-11-21T02:10:30;2.67;;;1.20;;
19446;SDS011;9862;49.462;11.054;2023-11-21T02:12:56;2.72;;;1.23;;
19446;SDS011;9862;49.462;11.054;2023-11-21T02:15:25;3.35;;;1.13;;
19446;SDS011;9862;49.462;11.054;2023-11-21T02:17:54;1.20;;;0.80;;
19446;SDS011;9862;49.462;11.054;2023-11-21T02:20:21;1.65;;;0.90;;
19446;SDS011;9862;49.462;11.054;2023-11-21T02:22:51;4.00;;;1.30;;
19446;SDS011;9862;49.462;11.054;2023-11-21T02:25:23;2.83;;;1.00;;
19446;SDS011;9862;49.462;11.054;2023-11-21T02:27:50;1.90;;;1.10;;
19446;SDS011;9862;49.462;11.054;2023-11-21T02:30:17;2.42;;;1.00;;
19446;SDS011;9862;49.462;11.054;2023-11-21T02:32:43;2.67;;;1.20;;
19446;SDS011;9862;49.462;11.054;2023-11-21T02:35:12;1.52;;;1.25;;
19446;SDS011;9862;49.462;11.054;2023-11-21T02:37:39;2.10;;;1.00;;
19446;SDS011;9862;49.462;11.054;2023-11-21T02:40:10;1.50;;;0.90;;
19446;SDS011;9862;49.462;11.054;2023-11-21T02:42:39;3.45;;;1.00;;
19446;SDS011;9862;49.462;11.054;2023-11-21T02:45:06;2.33;;;0.93;;
19446;SDS011;9862;49.462;11.054;2023-11-21T02:47:34;2.63;;;1.30;;
19446;SDS011;9862;49.462;11.054;2023-11-21T02:50:00;2.78;;;1.30;;
19446;SDS011;9862;49.462;11.054;2023-11-21T02:52:27;1.77;;;0.95;;
19446;SDS011;9862;49.462;11.054;2023-11-21T02:54:55;3.97;;;1.38;;
19446;SDS011;9862;49.462;11.054;2023-11-21T02:57:24;4.18;;;1.30;;
19446;SDS011;9862;49.462;11.054;2023-11-21T02:59:50;4.13;;;1.23;;
19446;SDS011;9862;49.462;11.054;2023-11-21T03:02:17;2.00;;;0.98;;
19446;SDS011;9862;49.462;11.054;2023-11-21T03:04:44;2.25;;;1.20;;
19446;SDS011;9862;49.462;11.054;2023-11-21T03:07:14;3.67;;;1.48;;
19446;SDS011;9862;49.462;11.054;2023-11-21T03:09:41;1.90;;;1.08;;
19446;SDS011;9862;49.462;11.054;2023-11-21T03:12:09;3.65;;;1.45;;
19446;SDS011;9862;49.462;11.054;2023-11-21T03:14:38;3.42;;;1.20;;
19446;SDS011;9862;49.462;11.054;2023-11-21T03:17:06;2.08;;;1.35;;
19446;SDS011;9862;49.462;11.054;2023-11-21T03:19:36;3.30;;;1.58;;
19446;SDS011;9862;49.462;11.054;2023-11-21T03:22:04;3.42;;;1.42;;
19446;SDS011;9862;49.462;11.054;2023-11-21T03:24:33;2.60;;;1.35;;
19446;SDS011;9862;49.462;11.054;2023-11-21T03:27:01;4.57;;;1.33;;
19446;SDS011;9862;49.462;11.054;2023-11-21T03:29:29;2.50;;;1.30;;
19446;SDS011;9862;49.462;11.054;2023-11-21T03:32:03;3.20;;;1.40;;
19446;SDS011;9862;49.462;11.054;2023-11-21T03:34:33;2.55;;;1.48;;
19446;SDS011;9862;49.462;11.054;2023-11-21T03:37:01;3.78;;;1.23;;
19446;SDS011;9862;49.462;11.054;2023-11-21T03:39:28;4.50;;;1.60;;
19446;SDS011;9862;49.462;11.054;2023-11-21T03:41:55;3.53;;;1.27;;
19446;SDS011;9862;49.462;11.054;2023-11-21T03:44:22;2.80;;;1.10;;
19446;SDS011;9862;49.462;11.054;2023-11-21T03:46:48;3.70;;;1.40;;
19446;SDS011;9862;49.462;11.054;2023-11-21T03:49:17;2.75;;;1.75;;
19446;SDS011;9862;49.462;11.054;2023-11-21T03:51:44;3.75;;;1.58;;
19446;SDS011;9862;49.462;11.054;2023-11-21T03:54:11;4.85;;;1.60;;
19446;SDS011;9862;49.462;11.054;2023-11-21T03:56:40;4.85;;;2.75;;
19446;SDS011;9862;49.462;11.054;2023-11-21T03:59:07;3.38;;;1.50;;
19446;SDS011;9862;49.462;11.054;2023-11-21T04:01:34;2.95;;;1.52;;
19446;SDS011;9862;49.462;11.054;2023-11-21T04:04:01;3.70;;;1.73;;
19446;SDS011;9862;49.462;11.054;2023-11-21T04:06:30;3.88;;;1.60;;
19446;SDS011;9862;49.462;11.054;2023-11-21T04:08:58;3.42;;;1.75;;
19446;SDS011;9862;49.462;11.054;2023-11-21T04:11:26;2.72;;;1.75;;
19446;SDS011;9862;49.462;11.054;2023-11-21T04:13:55;4.78;;;2.35;;
19446;SDS011;9862;49.462;11.054;2023-11-21T04:16:22;4.65;;;2.35;;
19446;SDS011;9862;49.462;11.054;2023-11-21T04:18:49;3.33;;;1.27;;
19446;SDS011;9862;49.462;11.054;2023-11-21T04:21:16;5.50;;;1.55;;
19446;SDS011;9862;49.462;11.054;2023-11-21T04:23:45;3.45;;;1.52;;
19446;SDS011;9862;49.462;11.054;2023-11-21T04:26:13;3.67;;;1.52;;
19446;SDS011;9862;49.462;11.054;2023-11-21T04:28:40;3.08;;;1.40;;
19446;SDS011;9862;49.462;11.054;2023-11-21T04:31:07;3.20;;;1.73;;
19446;SDS011;9862;49.462;11.054;2023-11-21T04:33:34;6.38;;;1.88;;
19446;SDS011;9862;49.462;11.054;2023-11-21T04:36:02;4.53;;;2.75;;
19446;SDS011;9862;49.462;11.054;2023-11-21T04:38:30;1.52;;;1.10;;
19446;SDS011;9862;49.462;11.054;2023-11-21T04:40:59;15.43;;;7.40;;
19446;SDS011;9862;49.462;11.054;2023-11-21T04:43:26;10.40;;;5.00;;
19446;SDS011;9862;49.462;11.054;2023-11-21T04:45:54;3.88;;;2.33;;
19446;SDS011;9862;49.462;11.054;2023-11-21T04:48:21;5.75;;;2.40;;
19446;SDS011;9862;49.462;11.054;2023-11-21T04:50:48;2.10;;;1.38;;
19446;SDS011;9862;49.462;11.054;2023-11-21T04:53:16;5.47;;;2.58;;
19446;SDS011;9862;49.462;11.054;2023-11-21T04:55:43;4.68;;;1.95;;
19446;SDS011;9862;49.462;11.054;2023-11-21T04:58:12;4.50;;;2.75;;
19446;SDS011;9862;49.462;11.054;2023-11-21T05:00:39;1.60;;;1.23;;
19446;SDS011;9862;49.462;11.054;2023-11-21T05:03:06;3.92;;;1.92;;
19446;SDS011;9862;49.462;11.054;2023-11-21T05:05:33;6.38;;;2.70;;
19446;SDS011;9862;49.462;11.054;2023-11-21T05:08:00;5.13;;;2.20;;
19446;SDS011;9862;49.462;11.054;2023-11-21T05:10:27;5.95;;;3.45;;
19446;SDS011;9862;49.462;11.054;2023-11-21T05:12:55;7.45;;;3.80;;
19446;SDS011;9862;49.462;11.054;2023-11-21T05:15:23;7.03;;;4.97;;
19446;SDS011;9862;49.462;11.054;2023-11-21T05:17:50;13.18;;;7.15;;
19446;SDS011;9862;49.462;11.054;2023-11-21T05:20:17;10.27;;;6.15;;
19446;SDS011;9862;49.462;11.054;2023-11-21T05:22:46;9.25;;;6.03;;
19446;SDS011;9862;49.462;11.054;2023-11-21T05:25:14;7.07;;;3.00;;
19446;SDS011;9862;49.462;11.054;2023-11-21T05:27:43;4.95;;;1.90;;
19446;SDS011;9862;49.462;11.054;2023-11-21T05:30:10;6.43;;;4.32;;
19446;SDS011;9862;49.462;11.054;2023-11-21T05:32:39;9.48;;;4.82;;
19446;SDS011;9862;49.462;11.054;2023-11-21T05:35:07;4.72;;;3.03;;
19446;SDS011;9862;49.462;11.054;2023-11-21T05:37:40;4.43;;;2.55;;
19446;SDS011;9862;49.462;11.054;2023-11-21T05:40:08;2.35;;;1.67;;
19446;SDS011;9862;49.462;11.054;2023-11-21T05:42:35;12.32;;;7.07;;
19446;SDS011;9862;49.462;11.054;2023-11-21T05:45:03;18.02;;;9.88;;
19446;SDS011;9862;49.462;11.054;2023-11-21T05:47:35;6.50;;;4.03;;
19446;SDS011;9862;49.462;11.054;2023-11-21T05:50:05;4.47;;;1.95;;
19446;SDS011;9862;49.462;11.054;2023-11-21T05:52:35;3.75;;;1.70;;
19446;SDS011;9862;49.462;11.054;2023-11-21T05:55:02;4.10;;;2.60;;
19446;SDS011;9862;49.462;11.054;2023-11-21T05:57:32;7.60;;;4.93;;
19446;SDS011;9862;49.462;11.054;2023-11-21T05:59:59;11.43;;;5.10;;
19446;SDS011;9862;49.462;11.054;2023-11-21T06:02:29;23.27;;;11.98;;
19446;SDS011;9862;49.462;11.054;2023-11-21T06:04:56;27.83;;;13.48;;
19446;SDS011;9862;49.462;11.054;2023-11-21T06:07:24;13.57;;;6.35;;
19446;SDS011;9862;49.462;11.054;2023-11-21T06:09:51;5.47;;;3.28;;
19446;SDS011;9862;49.462;11.054;2023-11-21T06:12:18;5.25;;;2.45;;
19446;SDS011;9862;49.462;11.054;2023-11-21T06:14:45;4.55;;;2.30;;
19446;SDS011;9862;49.462;11.054;2023-11-21T06:17:14;3.42;;;2.30;;
19446;SDS011;9862;49.462;11.054;2023-11-21T06:19:41;3.95;;;2.03;;
19446;SDS011;9862;49.462;11.054;2023-11-21T06:22:08;6.72;;;3.55;;
19446;SDS011;9862;49.462;11.054;2023-11-21T06:24:36;4.63;;;2.63;;
19446;SDS011;9862;49.462;11.054;2023-11-21T06:27:04;6.47;;;2.55;;
19446;SDS011;9862;49.462;11.054;2023-11-21T06:29:31;6.90;;;2.80;;
19446;SDS011;9862;49.462;11.054;2023-11-21T06:31:58;5.00;;;2.35;;
19446;SDS011;9862;49.462;11.054;2023-11-21T06:34:25;2.90;;;2.50;;
19446;SDS011;9862;49.462;11.054;2023-11-21T06:36:53;3.92;;;2.58;;
19446;SDS011;9862;49.462;11.054;2023-11-21T06:39:20;4.53;;;2.22;;
19446;SDS011;9862;49.462;11.054;2023-11-21T06:41:50;3.83;;;2.00;;
19446;SDS011;9862;49.462;11.054;2023-11-21T06:44:17;4.10;;;2.35;;
19446;SDS011;9862;49.462;11.054;2023-11-21T06:46:45;3.83;;;2.17;;
19446;SDS011;9862;49.462;11.054;2023-11-21T06:49:12;5.18;;;2.10;;
19446;SDS011;9862;49.462;11.054;2023-11-21T06:51:38;3.35;;;2.13;;
19446;SDS011;9862;49.462;11.054;2023-11-21T06:54:06;3.40;;;2.50;;
19446;SDS011;9862;49.462;11.054;2023-11-21T06:56:33;4.38;;;2.97;;
19446;SDS011;9862;49.462;11.054;2023-11-21T06:59:01;4.22;;;2.70;;
19446;SDS011;9862;49.462;11.054;2023-11-21T07:01:31;4.40;;;2.33;;
19446;SDS011;9862;49.462;11.054;2023-11-21T07:04:04;4.18;;;2.53;;
19446;SDS011;9862;49.462;11.054;2023-11-21T07:06:32;3.85;;;2.70;;
19446;SDS011;9862;49.462;11.054;2023-11-21T07:08:59;5.53;;;2.67;;
19446;SDS011;9862;49.462;11.054;2023-11-21T07:11:26;5.63;;;2.95;;
19446;SDS011;9862;49.462;11.054;2023-11-21T07:13:53;5.97;;;2.78;;
19446;SDS011;9862;49.462;11.054;2023-11-21T07:16:21;3.92;;;2.85;;
19446;SDS011;9862;49.462;11.054;2023-11-21T07:18:49;4.20;;;3.08;;
19446;SDS011;9862;49.462;11.054;2023-11-21T07:21:16;2.88;;;2.45;;
19446;SDS011;9862;49.462;11.054;2023-11-21T07:23:43;4.47;;;2.70;;
19446;SDS011;9862;49.462;11.054;2023-11-21T07:26:11;5.10;;;2.97;;
19446;SDS011;9862;49.462;11.054;2023-11-21T07:28:38;6.80;;;3.35;;
19446;SDS011;9862;49.462;11.054;2023-11-21T07:31:05;3.75;;;2.78;;
19446;SDS011;9862;49.462;11.054;2023-11-21T07:33:33;5.10;;;3.00;;
19446;SDS011;9862;49.462;11.054;2023-11-21T07:36:01;5.25;;;2.97;;
19446;SDS011;9862;49.462;11.054;2023-11-21T07:38:27;4.72;;;2.53;;
19446;SDS011;9862;49.462;11.054;2023-11-21T07:40:54;5.65;;;3.20;;
19446;SDS011;9862;49.462;11.054;2023-11-21T07:43:22;3.72;;;2.58;;
19446;SDS011;9862;49.462;11.054;2023-11-21T07:45:49;4.30;;;2.97;;
19446;SDS011;9862;49.462;11.054;2023-11-21T07:48:16;4.80;;;3.22;;
19446;SDS011;9862;49.462;11.054;2023-11-21T07:50:44;6.55;;;5.20;;
19446;SDS011;9862;49.462;11.054;2023-11-21T07:53:13;7.85;;;6.30;;
19446;SDS011;9862;49.462;11.054;2023-11-21T07:55:40;6.05;;;4.50;;
19446;SDS011;9862;49.462;11.054;2023-11-21T07:58:07;5.50;;;3.42;;
19446;SDS011;9862;49.462;11.054;2023-11-21T08:00:34;6.97;;;4.28;;
19446;SDS011;9862;49.462;11.054;2023-11-21T08:03:00;5.60;;;4.57;;
19446;SDS011;9862;49.462;11.054;2023-11-21T08:05:28;7.95;;;6.40;;
19446;SDS011;9862;49.462;11.054;2023-11-21T08:07:56;7.88;;;3.85;;
19446;SDS011;9862;49.462;11.054;2023-11-21T08:10:23;6.93;;;4.63;;
19446;SDS011;9862;49.462;11.054;2023-11-21T08:12:50;6.80;;;4.72;;
19446;SDS011;9862;49.462;11.054;2023-11-21T08:15:18;5.07;;;4.00;;
19446;SDS011;9862;49.462;11.054;2023-11-21T08:17:46;5.50;;;3.65;;
19446;SDS011;9862;49.462;11.054;2023-11-21T08:20:14;7.03;;;3.65;;
19446;SDS011;9862;49.462;11.054;2023-11-21T08:22:43;6.35;;;3.20;;
19446;SDS011;9862;49.462;11.054;2023-11-21T08:25:12;6.60;;;3.78;;
19446;SDS011;9862;49.462;11.054;2023-11-21T08:27:38;8.98;;;4.05;;
19446;SDS011;9862;49.462;11.054;2023-11-21T08:30:06;4.90;;;2.78;;
19446;SDS011;9862;49.462;11.054;2023-11-21T08:32:34;4.88;;;2.75;;
19446;SDS011;9862;49.462;11.054;2023-11-21T08:35:01;6.55;;;3.80;;
19446;SDS011;9862;49.462;11.054;2023-11-21T08:37:27;5.03;;;3.70;;
19446;SDS011;9862;49.462;11.054;2023-11-21T08:39:57;5.47;;;3.63;;
19446;SDS011;9862;49.462;11.054;2023-11-21T08:42:27;7.55;;;3.92;;
19446;SDS011;9862;49.462;11.054;2023-11-21T08:44:55;4.97;;;3.90;;
19446;SDS011;9862;49.462;11.054;2023-11-21T08:47:23;4.82;;;3.80;;
19446;SDS011;9862;49.462;11.054;2023-11-21T08:49:52;5.70;;;4.43;;
19446;SDS011;9862;49.462;11.054;2023-11-21T08:52:19;6.10;;;4.65;;
19446;SDS011;9862;49.462;11.054;2023-11-21T08:54:48;9.65;;;5.03;;
19446;SDS011;9862;49.462;11.054;2023-11-21T08:57:21;9.30;;;5.07;;
19446;SDS011;9862;49.462;11.054;2023-11-21T08:59:49;7.35;;;4.82;;
19446;SDS011;9862;49.462;11.054;2023-11-21T09:02:20;7.30;;;4.85;;
19446;SDS011;9862;49.462;11.054;2023-11-21T09:04:48;6.97;;;4.25;;
19446;SDS011;9862;49.462;11.054;2023-11-21T09:07:16;7.80;;;4.70;;
19446;SDS011;9862;49.462;11.054;2023-11-21T09:09:44;6.35;;;4.72;;
19446;SDS011;9862;49.462;11.054;2023-11-21T09:12:11;7.40;;;4.55;;
19446;SDS011;9862;49.462;11.054;2023-11-21T09:14:37;6.55;;;4.22;;
19446;SDS011;9862;49.462;11.054;2023-11-21T09:17:06;4.70;;;4.15;;
19446;SDS011;9862;49.462;11.054;2023-11-21T09:19:36;7.32;;;4.88;;
19446;SDS011;9862;49.462;11.054;2023-11-21T09:22:02;5.35;;;4.57;;
19446;SDS011;9862;49.462;11.054;2023-11-21T09:24:30;6.20;;;4.82;;
19446;SDS011;9862;49.462;11.054;2023-11-21T09:26:57;8.32;;;4.88;;
19446;SDS011;9862;49.462;11.054;2023-11-21T09:29:25;6.47;;;4.53;;
19446;SDS011;9862;49.462;11.054;2023-11-21T09:31:52;9.18;;;4.72;;
19446;SDS011;9862;49.462;11.054;2023-11-21T09:34:21;8.30;;;4.43;;
19446;SDS011;9862;49.462;11.054;2023-11-21T09:36:48;6.32;;;3.90;;
19446;SDS011;9862;49.462;11.054;2023-11-21T09:39:15;5.47;;;4.40;;
19446;SDS011;9862;49.462;11.054;2023-11-21T09:41:43;7.65;;;5.07;;
19446;SDS011;9862;49.462;11.054;2023-11-21T09:44:13;7.80;;;4.63;;
19446;SDS011;9862;49.462;11.054;2023-11-21T09:46:44;6.30;;;4.63;;
19446;SDS011;9862;49.462;11.054;2023-11-21T09:49:14;6.68;;;4.68;;
19446;SDS011;9862;49.462;11.054;2023-11-21T09:51:46;8.52;;;5.53;;
19446;SDS011;9862;49.462;11.054;2023-11-21T09:54:15;7.50;;;4.82;;
19446;SDS011;9862;49.462;11.054;2023-11-21T09:56:43;7.97;;;5.43;;
19446;SDS011;9862;49.462;11.054;2023-11-21T09:59:13;8.20;;;5.20;;
19446;SDS011;9862;49.462;11.054;2023-11-21T10:01:41;8.20;;;5.35;;
19446;SDS011;9862;49.462;11.054;2023-11-21T10:04:10;11.50;;;5.43;;
19446;SDS011;9862;49.462;11.054;2023-11-21T10:06:38;7.90;;;5.05;;
19446;SDS011;9862;49.462;11.054;2023-11-21T10:09:08;8.02;;;5.00;;
19446;SDS011;9862;49.462;11.054;2023-11-21T10:11:38;7.85;;;5.20;;
19446;SDS011;9862;49.462;11.054;2023-11-21T10:14:08;9.55;;;6.00;;
19446;SDS011;9862;49.462;11.054;2023-11-21T10:16:38;7.68;;;4.97;;
19446;SDS011;9862;49.462;11.054;2023-11-21T10:19:06;8.18;;;4.55;;
19446;SDS011;9862;49.462;11.054;2023-11-21T10:21:38;7.57;;;4.15;;
19446;SDS011;9862;49.462;11.054;2023-11-21T10:24:06;7.57;;;4.50;;
19446;SDS011;9862;49.462;11.054;2023-11-21T10:26:35;5.18;;;3.85;;
19446;SDS011;9862;49.462;11.054;2023-11-21T10:29:03;5.75;;;4.47;;
19446;SDS011;9862;49.462;11.054;2023-11-21T10:31:30;7.13;;;5.07;;
19446;SDS011;9862;49.462;11.054;2023-11-21T10:34:11;6.28;;;3.92;;
19446;SDS011;9862;49.462;11.054;2023-11-21T10:36:39;7.20;;;4.95;;
19446;SDS011;9862;49.462;11.054;2023-11-21T10:39:07;8.82;;;5.25;;
19446;SDS011;9862;49.462;11.054;2023-11-21T10:41:34;7.30;;;5.07;;
19446;SDS011;9862;49.462;11.054;2023-11-21T10:44:02;9.77;;;4.47;;
19446;SDS011;9862;49.462;11.054;2023-11-21T10:46:32;7.22;;;4.57;;
19446;SDS011;9862;49.462;11.054;2023-11-21T10:48:59;5.53;;;4.00;;
19446;SDS011;9862;49.462;11.054;2023-11-21T10:51:27;7.05;;;4.07;;
19446;SDS011;9862;49.462;11.054;2023-11-21T10:53:54;7.60;;;4.20;;
19446;SDS011;9862;49.462;11.054;2023-11-21T10:56:24;5.97;;;3.67;;
19446;SDS011;9862;49.462;11.054;2023-11-21T10:58:54;7.25;;;3.97;;
19446;SDS011;9862;49.462;11.054;2023-11-21T11:01:20;3.85;;;3.20;;
19446;SDS011;9862;49.462;11.054;2023-11-21T11:03:51;3.70;;;3.13;;
19446;SDS011;9862;49.462;11.054;2023-11-21T11:06:20;3.05;;;2.75;;
19446;SDS011;9862;49.462;11.054;2023-11-21T11:08:48;4.57;;;3.08;;
19446;SDS011;9862;49.462;11.054;2023-11-21T11:11:16;3.33;;;2.92;;
19446;SDS011;9862;49.462;11.054;2023-11-21T11:13:46;4.28;;;3.10;;
19446;SDS011;9862;49.462;11.054;2023-11-21T11:16:13;4.82;;;2.85;;
19446;SDS011;9862;49.462;11.054;2023-11-21T11:18:42;5.20;;;3.53;;
19446;SDS011;9862;49.462;11.054;2023-11-21T11:21:16;4.90;;;2.95;;
19446;SDS011;9862;49.462;11.054;2023-11-21T11:23:59;3.83;;;3.00;;
19446;SDS011;9862;49.462;11.054;2023-11-21T11:26:40;4.50;;;2.85;;
19446;SDS011;9862;49.462;11.054;2023-11-21T11:29:17;3.50;;;2.92;;
19446;SDS011;9862;49.462;11.054;2023-11-21T11:31:54;4.20;;;2.78;;
19446;SDS011;9862;49.462;11.054;2023-11-21T11:34:30;3.88;;;2.90;;
19446;SDS011;9862;49.462;11.054;2023-11-21T11:37:02;4.95;;;3.08;;
19446;SDS011;9862;49.462;11.054;2023-11-21T11:39:31;4.00;;;2.85;;
19446;SDS011;9862;49.462;11.054;2023-11-21T11:42:03;4.88;;;3.20;;
19446;SDS011;9862;49.462;11.054;2023-11-21T11:44:48;5.90;;;3.55;;
19446;SDS011;9862;49.462;11.054;2023-11-21T11:47:21;5.00;;;2.78;;
19446;SDS011;9862;49.462;11.054;2023-11-21T11:49:57;4.65;;;2.80;;
19446;SDS011;9862;49.462;11.054;2023-11-21T11:52:32;4.65;;;2.85;;
19446;SDS011;9862;49.462;11.054;2023-11-21T11:55:01;4.32;;;3.47;;
19446;SDS011;9862;49.462;11.054;2023-11-21T11:57:29;6.15;;;3.78;;
19446;SDS011;9862;49.462;11.054;2023-11-21T12:00:08;4.15;;;3.22;;
19446;SDS011;9862;49.462;11.054;2023-11-21T12:02:41;5.70;;;3.92;;
19446;SDS011;9862;49.462;11.054;2023-11-21T12:05:09;5.28;;;3.55;;
19446;SDS011;9862;49.462;11.054;2023-11-21T12:07:39;5.10;;;3.25;;
19446;SDS011;9862;49.462;11.054;2023-11-21T12:10:10;5.40;;;3.50;;
19446;SDS011;9862;49.462;11.054;2023-11-21T12:12:41;6.18;;;3.60;;
19446;SDS011;9862;49.462;11.054;2023-11-21T12:15:11;5.05;;;3.80;;
19446;SDS011;9862;49.462;11.054;2023-11-21T12:17:38;5.88;;;3.63;;
19446;SDS011;9862;49.462;11.054;2023-11-21T12:20:05;4.60;;;3.83;;
19446;SDS011;9862;49.462;11.054;2023-11-21T12:22:39;5.93;;;3.75;;
19446;SDS011;9862;49.462;11.054;2023-11-21T12:25:08;6.97;;;3.75;;
19446;SDS011;9862;49.462;11.054;2023-11-21T12:27:34;6.93;;;4.18;;
19446;SDS011;9862;49.462;11.054;2023-11-21T12:30:01;7.88;;;3.88;;
19446;SDS011;9862;49.462;11.054;2023-11-21T12:32:30;8.20;;;4.30;;
19446;SDS011;9862;49.462;11.054;2023-11-21T12:34:57;6.13;;;4.32;;
19446;SDS011;9862;49.462;11.054;2023-11-21T12:37:24;7.63;;;5.18;;
19446;SDS011;9862;49.462;11.054;2023-11-21T12:39:53;7.53;;;4.72;;
19446;SDS011;9862;49.462;11.054;2023-11-21T12:42:23;8.82;;;5.07;;
19446;SDS011;9862;49.462;11.054;2023-11-21T12:47:41;8.35;;;5.25;;
19446;SDS011;9862;49.462;11.054;2023-11-21T12:50:09;7.07;;;4.60;;
19446;SDS011;9862;49.462;11.054;2023-11-21T12:52:41;6.63;;;4.97;;
19446;SDS011;9862;49.462;11.054;2023-11-21T12:55:12;6.03;;;3.83;;
19446;SDS011;9862;49.462;11.054;2023-11-21T12:57:41;8.23;;;4.15;;
19446;SDS011;9862;49.462;11.054;2023-11-21T13:00:09;8.10;;;3.97;;
19446;SDS011;9862;49.462;11.054;2023-11-21T13:02:42;5.80;;;4.43;;
19446;SDS011;9862;49.462;11.054;2023-11-21T13:05:09;6.75;;;4.13;;
19446;SDS011;9862;49.462;11.054;2023-11-21T13:07:46;7.00;;;4.57;;
19446;SDS011;9862;49.462;11.054;2023-11-21T13:10:16;5.75;;;3.92;;
19446;SDS011;9862;49.462;11.054;2023-11-21T13:12:43;6.18;;;4.20;;
19446;SDS011;9862;49.462;11.054;2023-11-21T13:15:13;5.57;;;4.10;;
19446;SDS011;9862;49.462;11.054;2023-11-21T13:17:42;6.07;;;4.07;;
19446;SDS011;9862;49.462;11.054;2023-11-21T13:20:10;6.60;;;4.07;;
19446;SDS011;9862;49.462;11.054;2023-11-21T13:22:45;6.57;;;4.40;;
19446;SDS011;9862;49.462;11.054;2023-11-21T13:25:14;11.15;;;4.25;;
19446;SDS011;9862;49.462;11.054;2023-11-21T13:27:43;5.20;;;3.80;;
19446;SDS011;9862;49.462;11.054;2023-11-21T13:30:12;5.43;;;3.58;;
19446;SDS011;9862;49.462;11.054;2023-11-21T13:32:50;4.38;;;3.30;;
19446;SDS011;9862;49.462;11.054;2023-11-21T13:35:16;6.90;;;3.75;;
19446;SDS011;9862;49.462;11.054;2023-11-21T13:37:49;5.03;;;3.47;;
19446;SDS011;9862;49.462;11.054;2023-11-21T13:40:21;4.30;;;3.33;;
19446;SDS011;9862;49.462;11.054;2023-11-21T13:42:51;4.90;;;3.03;;
19446;SDS011;9862;49.462;11.054;2023-11-21T13:45:20;4.50;;;2.67;;
19446;SDS011;9862;49.462;11.054;2023-11-21T13:47:51;5.72;;;2.80;;
19446;SDS011;9862;49.462;11.054;2023-11-21T13:50:22;5.53;;;2.25;;
19446;SDS011;9862;49.462;11.054;2023-11-21T13:52:50;3.67;;;2.60;;
19446;SDS011;9862;49.462;11.054;2023-11-21T13:55:18;4.38;;;2.60;;
19446;SDS011;9862;49.462;11.054;2023-11-21T13:57:47;5.38;;;2.90;;
19446;SDS011;9862;49.462;11.054;2023-11-21T14:00:17;5.35;;;3.53;;
19446;SDS011;9862;49.462;11.054;2023-11-21T14:02:59;4.40;;;2.20;;
19446;SDS011;9862;49.462;11.054;2023-11-21T14:05:26;6.38;;;2.95;;
19446;SDS011;9862;49.462;11.054;2023-11-21T14:07:54;4.80;;;2.67;;
19446;SDS011;9862;49.462;11.054;2023-11-21T14:10:27;6.95;;;2.15;;
19446;SDS011;9862;49.462;11.054;2023-11-21T14:13:03;3.50;;;2.28;;
19446;SDS011;9862;49.462;11.054;2023-11-21T14:15:32;3.88;;;1.80;;
19446;SDS011;9862;49.462;11.054;2023-11-21T14:18:05;4.38;;;1.90;;
19446;SDS011;9862;49.462;11.054;2023-11-21T14:20:35;7.80;;;3.00;;
19446;SDS011;9862;49.462;11.054;2023-11-21T14:23:02;7.07;;;2.13;;
19446;SDS011;9862;49.462;11.054;2023-11-21T14:25:29;4.85;;;2.70;;
19446;SDS011;9862;49.462;11.054;2023-11-21T14:27:57;8.93;;;4.18;;
19446;SDS011;9862;49.462;11.054;2023-11-21T14:30:24;11.65;;;5.70;;
19446;SDS011;9862;49.462;11.054;2023-11-21T14:32:52;11.32;;;6.15;;
19446;SDS011;9862;49.462;11.054;2023-11-21T14:35:21;7.07;;;3.88;;
19446;SDS011;9862;49.462;11.054;2023-11-21T14:37:48;7.03;;;3.22;;
19446;SDS011;9862;49.462;11.054;2023-11-21T14:40:15;4.85;;;2.50;;
19446;SDS011;9862;49.462;11.054;2023-11-21T14:42:46;3.25;;;2.33;;
19446;SDS011;9862;49.462;11.054;2023-11-21T14:45:14;2.85;;;2.05;;
19446;SDS011;9862;49.462;11.054;2023-11-21T14:47:45;2.00;;;1.80;;
19446;SDS011;9862;49.462;11.054;2023-11-21T14:50:21;4.30;;;1.98;;
19446;SDS011;9862;49.462;11.054;2023-11-21T14:53:05;5.55;;;2.05;;
19446;SDS011;9862;49.462;11.054;2023-11-21T14:55:33;3.03;;;2.05;;
19446;SDS011;9862;49.462;11.054;2023-11-21T14:58:10;3.80;;;2.33;;